Hauptseite
METAR-TAF:

METAR-TAF

Flughäfen :

Warschau, Polen

Chopin-Flughafen Warschau

Breite: 52-10N, Länge: 020-58E, Höhe: 106 m

Beobachtung

Neuester Wetterbericht von vor 14 Minuten, um 14:30 UTC
Wind 5 kt aus Süd/Südost
Temperatur 8°C
Luftfeuchtigkeit 87%
Luftdruck 1013 hPa
Sichtweite 10 km oder mehr
keine Wolken unter 1500 m und keine Kumulonimbus oder Gewitterwolken

METAR: EPWA 241430Z 15005KT CAVOK 08/06 Q1013 NOSIG

Zeit: 15:44 (14:44 UTC)

Prognose

Neuester Wetterbericht von vor 3 Stunden und 14 Minuten, um 11:30 UTC
Gültige Prognose vom 24 um 12 UTC bis 25 um 12 UTC
Wind 7 kt aus Süd
Sichtweite 10 km oder mehr
keine Wolken unter 1500 m und keine Kumulonimbus oder Gewitterwolken

TAF: EPWA 241130Z 2412/2512 17007KT CAVOK

Wetterbeobachtungen und Prognosen von mehr als 4000 Flughäfen (METAR und TAF Bericht).

Die verfügbaren Stationen werden durch gelbe und rote Markierungen auf der Karte dargestellt.

Führen Sie die Maus auf sie, um den Namen der Station zu sehen.

Darauf klicken, um die Beobachtung von Wetterbeobachtungen und Prognosen zu sehen.

Um die Karte zu ändern : klicken Sie auf den grünen Tasten mit einem schwarzen Kreuz Zum Vergrößern, auf den grünen Button mit einem Gedankenstrich zu verkleinern, oder auf die grünen Pfeile für benachbarte Karten.


METAR-TAF: